sensor_id;sensor_type;location;lat;lon;timestamp;pressure;altitude;pressure_sealevel;temperature;humidity
51715;BME280;39115;59.332;18.034;2023-04-10T00:02:15;102568.69;;;5.72;47.49
51715;BME280;39115;59.332;18.034;2023-04-10T00:04:35;102565.13;;;5.73;47.50
51715;BME280;39115;59.332;18.034;2023-04-10T00:06:55;102565.19;;;5.72;47.51
51715;BME280;39115;59.332;18.034;2023-04-10T00:09:16;102563.47;;;5.70;47.43
51715;BME280;39115;59.332;18.034;2023-04-10T00:11:36;102562.66;;;5.68;48.14
51715;BME280;39115;59.332;18.034;2023-04-10T00:13:56;102561.94;;;5.65;48.22
51715;BME280;39115;59.332;18.034;2023-04-10T00:16:17;102561.13;;;5.63;47.73
51715;BME280;39115;59.332;18.034;2023-04-10T00:18:37;102559.38;;;5.62;48.20
51715;BME280;39115;59.332;18.034;2023-04-10T00:20:57;102557.78;;;5.58;48.23
51715;BME280;39115;59.332;18.034;2023-04-10T00:23:18;102557.09;;;5.52;47.66
51715;BME280;39115;59.332;18.034;2023-04-10T00:25:38;102555.56;;;5.47;48.23
51715;BME280;39115;59.332;18.034;2023-04-10T00:27:58;102557.31;;;5.46;47.71
51715;BME280;39115;59.332;18.034;2023-04-10T00:30:19;102553.03;;;5.44;48.06
51715;BME280;39115;59.332;18.034;2023-04-10T00:32:40;102550.53;;;5.39;48.30
51715;BME280;39115;59.332;18.034;2023-04-10T00:35:00;102558.63;;;5.34;48.13
51715;BME280;39115;59.332;18.034;2023-04-10T00:37:20;102561.28;;;5.34;48.00
51715;BME280;39115;59.332;18.034;2023-04-10T00:39:41;102561.34;;;5.33;48.03
51715;BME280;39115;59.332;18.034;2023-04-10T00:42:01;102555.38;;;5.28;47.78
51715;BME280;39115;59.332;18.034;2023-04-10T00:44:23;102569.53;;;5.25;48.44
51715;BME280;39115;59.332;18.034;2023-04-10T00:46:43;102570.56;;;5.21;48.54
51715;BME280;39115;59.332;18.034;2023-04-10T00:49:03;102568.16;;;5.15;47.97
51715;BME280;39115;59.332;18.034;2023-04-10T00:51:24;102565.75;;;5.09;48.24
51715;BME280;39115;59.332;18.034;2023-04-10T00:53:48;102562.38;;;5.03;48.47
51715;BME280;39115;59.332;18.034;2023-04-10T00:56:13;102563.41;;;4.99;48.35
51715;BME280;39115;59.332;18.034;2023-04-10T00:58:34;102557.31;;;4.97;48.75
51715;BME280;39115;59.332;18.034;2023-04-10T01:00:54;102555.53;;;4.98;47.99
51715;BME280;39115;59.332;18.034;2023-04-10T01:03:16;102558.22;;;4.96;48.62
51715;BME280;39115;59.332;18.034;2023-04-10T01:05:50;102553.84;;;4.97;48.49
51715;BME280;39115;59.332;18.034;2023-04-10T01:13:38;102554.75;;;4.96;48.32
51715;BME280;39115;59.332;18.034;2023-04-10T01:16:10;102555.59;;;4.96;48.29
51715;BME280;39115;59.332;18.034;2023-04-10T01:18:49;102557.38;;;4.96;48.25
51715;BME280;39115;59.332;18.034;2023-04-10T01:21:13;102556.56;;;4.94;48.27
51715;BME280;39115;59.332;18.034;2023-04-10T01:25:59;102550.53;;;4.90;48.08
51715;BME280;39115;59.332;18.034;2023-04-10T01:30:42;102543.59;;;4.87;48.33
51715;BME280;39115;59.332;18.034;2023-04-10T01:33:04;102546.28;;;4.86;48.26
51715;BME280;39115;59.332;18.034;2023-04-10T01:35:28;102543.69;;;4.84;48.61
51715;BME280;39115;59.332;18.034;2023-04-10T01:37:49;102546.47;;;4.81;48.49
51715;BME280;39115;59.332;18.034;2023-04-10T01:40:13;102545.50;;;4.82;48.43
51715;BME280;39115;59.332;18.034;2023-04-10T01:42:34;102546.47;;;4.81;48.09
51715;BME280;39115;59.332;18.034;2023-04-10T01:44:57;102550.91;;;4.79;48.13
51715;BME280;39115;59.332;18.034;2023-04-10T01:47:18;102551.81;;;4.78;47.96
51715;BME280;39115;59.332;18.034;2023-04-10T01:49:39;102544.81;;;4.77;47.93
51715;BME280;39115;59.332;18.034;2023-04-10T01:52:03;102550.16;;;4.75;48.08
51715;BME280;39115;59.332;18.034;2023-04-10T01:54:28;102554.56;;;4.75;48.27
51715;BME280;39115;59.332;18.034;2023-04-10T01:56:50;102551.13;;;4.73;48.06
51715;BME280;39115;59.332;18.034;2023-04-10T01:59:10;102546.84;;;4.70;48.21
51715;BME280;39115;59.332;18.034;2023-04-10T02:01:31;102550.41;;;4.68;48.04
51715;BME280;39115;59.332;18.034;2023-04-10T02:03:51;102550.53;;;4.65;48.21
51715;BME280;39115;59.332;18.034;2023-04-10T02:06:26;102540.97;;;4.61;48.53
51715;BME280;39115;59.332;18.034;2023-04-10T02:13:55;102542.97;;;4.54;48.35
51715;BME280;39115;59.332;18.034;2023-04-10T02:16:18;102545.72;;;4.51;48.08
51715;BME280;39115;59.332;18.034;2023-04-10T02:18:40;102548.41;;;4.49;48.18
51715;BME280;39115;59.332;18.034;2023-04-10T02:21:01;102545.00;;;4.46;48.39
51715;BME280;39115;59.332;18.034;2023-04-10T02:23:22;102539.78;;;4.44;48.19
51715;BME280;39115;59.332;18.034;2023-04-10T02:25:43;102542.47;;;4.42;48.42
51715;BME280;39115;59.332;18.034;2023-04-10T02:28:04;102539.97;;;4.38;48.13
51715;BME280;39115;59.332;18.034;2023-04-10T02:30:24;102541.78;;;4.36;48.28
51715;BME280;39115;59.332;18.034;2023-04-10T02:32:45;102544.50;;;4.34;48.73
51715;BME280;39115;59.332;18.034;2023-04-10T02:35:06;102543.66;;;4.32;48.57
51715;BME280;39115;59.332;18.034;2023-04-10T02:37:26;102549.88;;;4.31;48.46
51715;BME280;39115;59.332;18.034;2023-04-10T02:39:46;102537.63;;;4.28;48.50
51715;BME280;39115;59.332;18.034;2023-04-10T02:42:07;102542.13;;;4.26;48.59
51715;BME280;39115;59.332;18.034;2023-04-10T02:44:27;102535.13;;;4.25;48.77
51715;BME280;39115;59.332;18.034;2023-04-10T02:46:47;102535.16;;;4.24;48.66
51715;BME280;39115;59.332;18.034;2023-04-10T02:49:08;102534.34;;;4.22;48.46
51715;BME280;39115;59.332;18.034;2023-04-10T02:51:28;102530.06;;;4.19;48.57
51715;BME280;39115;59.332;18.034;2023-04-10T02:53:48;102536.25;;;4.17;48.46
51715;BME280;39115;59.332;18.034;2023-04-10T02:56:09;102530.19;;;4.15;48.49
51715;BME280;39115;59.332;18.034;2023-04-10T02:58:31;102532.91;;;4.11;48.81
51715;BME280;39115;59.332;18.034;2023-04-10T03:00:51;102531.19;;;4.10;48.43
51715;BME280;39115;59.332;18.034;2023-04-10T03:03:12;102533.94;;;4.07;48.66
51715;BME280;39115;59.332;18.034;2023-04-10T03:05:32;102527.78;;;4.07;48.59
51715;BME280;39115;59.332;18.034;2023-04-10T03:07:53;102527.84;;;4.05;48.42
51715;BME280;39115;59.332;18.034;2023-04-10T03:10:14;102534.94;;;4.03;48.85
51715;BME280;39115;59.332;18.034;2023-04-10T03:12:34;102533.19;;;4.02;48.78
51715;BME280;39115;59.332;18.034;2023-04-10T03:14:55;102531.47;;;4.01;48.64
51715;BME280;39115;59.332;18.034;2023-04-10T03:17:15;102530.63;;;4.01;48.90
51715;BME280;39115;59.332;18.034;2023-04-10T03:19:36;102535.91;;;4.01;48.71
51715;BME280;39115;59.332;18.034;2023-04-10T03:21:56;102535.06;;;3.99;48.64
51715;BME280;39115;59.332;18.034;2023-04-10T03:24:16;102530.72;;;3.98;48.72
51715;BME280;39115;59.332;18.034;2023-04-10T03:26:37;102531.66;;;3.95;48.63
51715;BME280;39115;59.332;18.034;2023-04-10T03:28:57;102532.69;;;3.91;48.78
51715;BME280;39115;59.332;18.034;2023-04-10T03:31:17;102532.88;;;3.85;48.84
51715;BME280;39115;59.332;18.034;2023-04-10T03:33:38;102535.66;;;3.80;48.83
51715;BME280;39115;59.332;18.034;2023-04-10T03:35:58;102523.53;;;3.74;49.19
51715;BME280;39115;59.332;18.034;2023-04-10T03:38:18;102523.66;;;3.70;48.88
51715;BME280;39115;59.332;18.034;2023-04-10T03:40:39;102524.56;;;3.69;48.83
51715;BME280;39115;59.332;18.034;2023-04-10T03:42:59;102522.00;;;3.67;48.90
51715;BME280;39115;59.332;18.034;2023-04-10T03:45:20;102524.66;;;3.66;48.82
51715;BME280;39115;59.332;18.034;2023-04-10T03:47:40;102526.50;;;3.63;48.87
51715;BME280;39115;59.332;18.034;2023-04-10T03:50:00;102526.53;;;3.62;48.92
51715;BME280;39115;59.332;18.034;2023-04-10T03:52:21;102526.56;;;3.60;48.86
51715;BME280;39115;59.332;18.034;2023-04-10T03:54:41;102527.47;;;3.59;48.88
51715;BME280;39115;59.332;18.034;2023-04-10T03:57:02;102533.63;;;3.60;48.93
51715;BME280;39115;59.332;18.034;2023-04-10T03:59:22;102532.75;;;3.59;48.86
51715;BME280;39115;59.332;18.034;2023-04-10T04:01:42;102529.25;;;3.59;48.79
51715;BME280;39115;59.332;18.034;2023-04-10T04:04:03;102527.53;;;3.58;49.00
51715;BME280;39115;59.332;18.034;2023-04-10T04:06:23;102535.38;;;3.59;48.88
51715;BME280;39115;59.332;18.034;2023-04-10T04:08:43;102525.75;;;3.58;48.70
51715;BME280;39115;59.332;18.034;2023-04-10T04:11:04;102521.38;;;3.59;48.96
51715;BME280;39115;59.332;18.034;2023-04-10T04:13:25;102525.72;;;3.60;48.82
51715;BME280;39115;59.332;18.034;2023-04-10T04:15:46;102524.81;;;3.61;48.94
51715;BME280;39115;59.332;18.034;2023-04-10T04:18:07;102522.13;;;3.62;49.17
51715;BME280;39115;59.332;18.034;2023-04-10T04:20:27;102522.97;;;3.63;48.84
51715;BME280;39115;59.332;18.034;2023-04-10T04:22:48;102522.06;;;3.64;48.75
51715;BME280;39115;59.332;18.034;2023-04-10T04:25:08;102524.66;;;3.66;48.82
51715;BME280;39115;59.332;18.034;2023-04-10T04:27:30;102521.09;;;3.68;48.82
51715;BME280;39115;59.332;18.034;2023-04-10T04:29:50;102517.56;;;3.68;48.84
51715;BME280;39115;59.332;18.034;2023-04-10T04:32:10;102528.84;;;3.73;49.00
51715;BME280;39115;59.332;18.034;2023-04-10T04:34:31;102527.00;;;3.75;48.82
51715;BME280;39115;59.332;18.034;2023-04-10T04:36:51;102529.56;;;3.78;48.91
51715;BME280;39115;59.332;18.034;2023-04-10T04:39:12;102530.34;;;3.82;49.10
51715;BME280;39115;59.332;18.034;2023-04-10T04:41:32;102525.00;;;3.85;49.00
51715;BME280;39115;59.332;18.034;2023-04-10T04:43:52;102530.09;;;3.89;48.96
51715;BME280;39115;59.332;18.034;2023-04-10T04:46:14;102531.81;;;3.90;49.18
51715;BME280;39115;59.332;18.034;2023-04-10T04:48:34;102525.56;;;3.94;48.73
51715;BME280;39115;59.332;18.034;2023-04-10T04:50:55;102533.34;;;3.98;48.91
51715;BME280;39115;59.332;18.034;2023-04-10T04:53:15;102536.75;;;4.01;49.12
51715;BME280;39115;59.332;18.034;2023-04-10T04:55:35;102539.34;;;4.03;48.74
51715;BME280;39115;59.332;18.034;2023-04-10T04:57:56;102542.63;;;4.09;48.91
51715;BME280;39115;59.332;18.034;2023-04-10T05:00:16;102539.91;;;4.13;49.21
51715;BME280;39115;59.332;18.034;2023-04-10T05:02:37;102539.84;;;4.16;49.07
51715;BME280;39115;59.332;18.034;2023-04-10T05:04:57;102537.97;;;4.19;48.95
51715;BME280;39115;59.332;18.034;2023-04-10T05:07:17;102543.94;;;4.24;48.90
51715;BME280;39115;59.332;18.034;2023-04-10T05:09:38;102541.16;;;4.29;49.20
51715;BME280;39115;59.332;18.034;2023-04-10T05:11:58;102550.66;;;4.35;48.75
51715;BME280;39115;59.332;18.034;2023-04-10T05:14:19;102539.91;;;4.39;49.02
51715;BME280;39115;59.332;18.034;2023-04-10T05:16:40;102541.50;;;4.45;48.64
51715;BME280;39115;59.332;18.034;2023-04-10T05:19:01;102535.22;;;4.49;48.88
51715;BME280;39115;59.332;18.034;2023-04-10T05:21:21;102542.03;;;4.55;48.65
51715;BME280;39115;59.332;18.034;2023-04-10T05:23:41;102538.34;;;4.61;48.81
51715;BME280;39115;59.332;18.034;2023-04-10T05:26:02;102534.69;;;4.65;49.13
51715;BME280;39115;59.332;18.034;2023-04-10T05:28:22;102535.41;;;4.70;48.46
51715;BME280;39115;59.332;18.034;2023-04-10T05:30:42;102531.69;;;4.75;48.94
51715;BME280;39115;59.332;18.034;2023-04-10T05:33:03;102523.63;;;4.80;48.78
51715;BME280;39115;59.332;18.034;2023-04-10T05:35:23;102528.75;;;4.85;48.63
51715;BME280;39115;59.332;18.034;2023-04-10T05:37:43;102524.09;;;4.91;48.88
51715;BME280;39115;59.332;18.034;2023-04-10T05:40:04;102524.75;;;4.98;49.16
51715;BME280;39115;59.332;18.034;2023-04-10T05:42:24;102525.41;;;5.05;48.81
51715;BME280;39115;59.332;18.034;2023-04-10T05:44:45;102521.66;;;5.11;48.88
51715;BME280;39115;59.332;18.034;2023-04-10T05:47:05;102530.22;;;5.17;49.16
51715;BME280;39115;59.332;18.034;2023-04-10T05:49:25;102530.88;;;5.24;49.00
51715;BME280;39115;59.332;18.034;2023-04-10T05:51:46;102524.38;;;5.33;48.97
51715;BME280;39115;59.332;18.034;2023-04-10T05:54:09;102525.84;;;5.40;48.45
51715;BME280;39115;59.332;18.034;2023-04-10T05:56:29;102522.00;;;5.49;48.35
51715;BME280;39115;59.332;18.034;2023-04-10T05:58:50;102518.16;;;5.58;48.69
51715;BME280;39115;59.332;18.034;2023-04-10T06:01:10;102527.50;;;5.66;48.67
51715;BME280;39115;59.332;18.034;2023-04-10T06:03:30;102523.72;;;5.74;48.76
51715;BME280;39115;59.332;18.034;2023-04-10T06:05:51;102514.50;;;5.84;48.33
51715;BME280;39115;59.332;18.034;2023-04-10T06:08:11;102521.16;;;5.94;48.84
51715;BME280;39115;59.332;18.034;2023-04-10T06:10:31;102520.88;;;6.02;48.86
51715;BME280;39115;59.332;18.034;2023-04-10T06:12:52;102514.34;;;6.11;48.17
51715;BME280;39115;59.332;18.034;2023-04-10T06:15:12;102501.63;;;6.21;48.18
51715;BME280;39115;59.332;18.034;2023-04-10T06:17:32;102508.22;;;6.31;48.18
51715;BME280;39115;59.332;18.034;2023-04-10T06:19:53;102502.47;;;6.42;48.11
51715;BME280;39115;59.332;18.034;2023-04-10T06:22:13;102501.19;;;6.52;48.16
51715;BME280;39115;59.332;18.034;2023-04-10T06:24:33;102500.72;;;6.63;48.32
51715;BME280;39115;59.332;18.034;2023-04-10T06:26:54;102507.34;;;6.73;48.04
51715;BME280;39115;59.332;18.034;2023-04-10T06:29:16;102494.56;;;6.83;48.37
51715;BME280;39115;59.332;18.034;2023-04-10T06:31:36;102503.75;;;6.95;47.99
51715;BME280;39115;59.332;18.034;2023-04-10T06:33:56;102503.34;;;7.04;48.02
51715;BME280;39115;59.332;18.034;2023-04-10T06:36:17;102498.41;;;7.16;48.33
51715;BME280;39115;59.332;18.034;2023-04-10T06:38:37;102504.09;;;7.27;48.25
51715;BME280;39115;59.332;18.034;2023-04-10T06:40:58;102506.25;;;7.38;47.90
51715;BME280;39115;59.332;18.034;2023-04-10T06:43:18;102496.84;;;7.50;47.90
51715;BME280;39115;59.332;18.034;2023-04-10T06:45:38;102496.34;;;7.60;47.68
51715;BME280;39115;59.332;18.034;2023-04-10T06:47:59;102495.91;;;7.70;47.80
51715;BME280;39115;59.332;18.034;2023-04-10T06:50:19;102491.13;;;7.78;47.73
51715;BME280;39115;59.332;18.034;2023-04-10T06:52:39;102485.38;;;7.87;47.75
51715;BME280;39115;59.332;18.034;2023-04-10T06:55:00;102488.50;;;7.96;47.76
51715;BME280;39115;59.332;18.034;2023-04-10T06:57:20;102480.25;;;8.02;47.79
51715;BME280;39115;59.332;18.034;2023-04-10T06:59:41;102483.59;;;8.05;47.91
51715;BME280;39115;59.332;18.034;2023-04-10T07:02:02;102486.13;;;8.09;47.84
51715;BME280;39115;59.332;18.034;2023-04-10T07:04:22;102481.13;;;8.20;47.86
51715;BME280;39115;59.332;18.034;2023-04-10T07:06:42;102476.91;;;8.33;47.75
51715;BME280;39115;59.332;18.034;2023-04-10T07:09:03;102480.81;;;8.44;47.33
51715;BME280;39115;59.332;18.034;2023-04-10T07:11:23;102479.38;;;8.56;47.82
51715;BME280;39115;59.332;18.034;2023-04-10T07:13:43;102480.53;;;8.67;47.41
51715;BME280;39115;59.332;18.034;2023-04-10T07:16:04;102480.06;;;8.77;47.50
51715;BME280;39115;59.332;18.034;2023-04-10T07:18:25;102478.69;;;8.85;47.53
51715;BME280;39115;59.332;18.034;2023-04-10T07:20:46;102479.06;;;8.95;47.17
51715;BME280;39115;59.332;18.034;2023-04-10T07:23:07;102485.00;;;9.00;47.26
51715;BME280;39115;59.332;18.034;2023-04-10T07:25:27;102484.75;;;9.05;47.35
51715;BME280;39115;59.332;18.034;2023-04-10T07:27:48;102489.56;;;9.14;47.59
51715;BME280;39115;59.332;18.034;2023-04-10T07:30:08;102486.25;;;9.27;46.99
51715;BME280;39115;59.332;18.034;2023-04-10T07:32:29;102487.28;;;9.40;46.90
51715;BME280;39115;59.332;18.034;2023-04-10T07:34:49;102490.22;;;9.52;47.15
51715;BME280;39115;59.332;18.034;2023-04-10T07:37:09;102491.34;;;9.63;47.12
51715;BME280;39115;59.332;18.034;2023-04-10T07:39:30;102490.63;;;9.76;46.97
51715;BME280;39115;59.332;18.034;2023-04-10T07:41:52;102499.72;;;9.88;46.84
51715;BME280;39115;59.332;18.034;2023-04-10T07:44:12;102495.84;;;9.93;46.95
51715;BME280;39115;59.332;18.034;2023-04-10T07:46:33;102481.16;;;10.02;47.07
51715;BME280;39115;59.332;18.034;2023-04-10T07:48:53;102488.63;;;10.11;46.56
51715;BME280;39115;59.332;18.034;2023-04-10T07:51:14;102492.63;;;10.19;47.10
51715;BME280;39115;59.332;18.034;2023-04-10T07:53:35;102493.88;;;10.27;46.57
51715;BME280;39115;59.332;18.034;2023-04-10T07:55:55;102488.13;;;10.35;47.44
51715;BME280;39115;59.332;18.034;2023-04-10T07:58:16;102488.72;;;10.40;46.71
51715;BME280;39115;59.332;18.034;2023-04-10T08:00:36;102488.34;;;10.47;46.81
51715;BME280;39115;59.332;18.034;2023-04-10T08:02:56;102481.72;;;10.54;46.76
51715;BME280;39115;59.332;18.034;2023-04-10T08:05:17;102480.59;;;10.58;47.14
51715;BME280;39115;59.332;18.034;2023-04-10T08:07:37;102480.31;;;10.63;47.09
51715;BME280;39115;59.332;18.034;2023-04-10T08:09:57;102486.03;;;10.71;46.47
51715;BME280;39115;59.332;18.034;2023-04-10T08:12:18;102483.56;;;10.82;46.83
51715;BME280;39115;59.332;18.034;2023-04-10T08:14:38;102481.28;;;10.90;46.59
51715;BME280;39115;59.332;18.034;2023-04-10T08:16:58;102484.06;;;11.03;46.29
51715;BME280;39115;59.332;18.034;2023-04-10T08:19:19;102487.94;;;11.12;46.68
51715;BME280;39115;59.332;18.034;2023-04-10T08:21:39;102484.81;;;11.20;46.66
51715;BME280;39115;59.332;18.034;2023-04-10T08:24:00;102478.91;;;11.29;46.40
51715;BME280;39115;59.332;18.034;2023-04-10T08:26:21;102480.22;;;11.36;46.16
51715;BME280;39115;59.332;18.034;2023-04-10T08:28:42;102484.50;;;11.39;46.24
51715;BME280;39115;59.332;18.034;2023-04-10T08:31:08;102479.47;;;11.34;46.42
51715;BME280;39115;59.332;18.034;2023-04-10T08:33:28;102480.91;;;11.26;46.51
51715;BME280;39115;59.332;18.034;2023-04-10T08:35:49;102485.84;;;11.32;46.57
51715;BME280;39115;59.332;18.034;2023-04-10T08:38:09;102479.00;;;11.42;46.43
51715;BME280;39115;59.332;18.034;2023-04-10T08:40:29;102474.88;;;11.51;46.60
51715;BME280;39115;59.332;18.034;2023-04-10T08:42:50;102470.75;;;11.60;46.42
51715;BME280;39115;59.332;18.034;2023-04-10T08:45:10;102469.09;;;11.71;46.44
51715;BME280;39115;59.332;18.034;2023-04-10T08:47:32;102468.38;;;11.82;46.58
51715;BME280;39115;59.332;18.034;2023-04-10T08:49:55;102464.16;;;11.93;46.30
51715;BME280;39115;59.332;18.034;2023-04-10T08:52:25;102453.75;;;12.02;45.93
51715;BME280;39115;59.332;18.034;2023-04-10T08:54:50;102462.84;;;12.13;46.23
51715;BME280;39115;59.332;18.034;2023-04-10T08:57:12;102456.78;;;12.24;46.08
51715;BME280;39115;59.332;18.034;2023-04-10T08:59:37;102452.75;;;12.31;46.20
51715;BME280;39115;59.332;18.034;2023-04-10T09:01:58;102451.28;;;12.40;46.24
51715;BME280;39115;59.332;18.034;2023-04-10T09:04:18;102444.75;;;12.44;46.15
51715;BME280;39115;59.332;18.034;2023-04-10T09:06:39;102450.53;;;12.51;46.05
51715;BME280;39115;59.332;18.034;2023-04-10T09:08:59;102450.09;;;12.57;45.96
51715;BME280;39115;59.332;18.034;2023-04-10T09:11:19;102449.66;;;12.63;45.81
51715;BME280;39115;59.332;18.034;2023-04-10T09:13:43;102439.44;;;12.70;46.00
51715;BME280;39115;59.332;18.034;2023-04-10T09:16:04;102449.69;;;12.76;45.98
51715;BME280;39115;59.332;18.034;2023-04-10T09:21:19;102434.47;;;12.89;45.85
51715;BME280;39115;59.332;18.034;2023-04-10T09:23:40;102439.81;;;12.89;45.90
51715;BME280;39115;59.332;18.034;2023-04-10T09:26:04;102438.75;;;12.92;45.95
51715;BME280;39115;59.332;18.034;2023-04-10T09:28:24;102438.34;;;12.98;45.88
51715;BME280;39115;59.332;18.034;2023-04-10T09:30:44;102435.53;;;13.00;45.80
51715;BME280;39115;59.332;18.034;2023-04-10T09:33:38;102429.25;;;13.01;45.87
51715;BME280;39115;59.332;18.034;2023-04-10T09:35:52;102436.28;;;13.02;45.87
51715;BME280;39115;59.332;18.034;2023-04-10T09:38:13;102436.38;;;13.00;45.86
51715;BME280;39115;59.332;18.034;2023-04-10T09:40:34;102424.97;;;12.98;45.90
51715;BME280;39115;59.332;18.034;2023-04-10T09:42:55;102418.53;;;13.01;45.87
51715;BME280;39115;59.332;18.034;2023-04-10T09:45:15;102411.03;;;13.06;45.91
51715;BME280;39115;59.332;18.034;2023-04-10T09:47:39;102421.28;;;13.12;45.66
51715;BME280;39115;59.332;18.034;2023-04-10T09:49:59;102417.53;;;13.15;45.65
51715;BME280;39115;59.332;18.034;2023-04-10T09:54:46;102418.59;;;13.25;45.72
51715;BME280;39115;59.332;18.034;2023-04-10T09:57:06;102423.47;;;13.31;45.72
51715;BME280;39115;59.332;18.034;2023-04-10T09:59:27;102414.16;;;13.37;45.76
51715;BME280;39115;59.332;18.034;2023-04-10T10:01:47;102414.16;;;13.37;45.66
51715;BME280;39115;59.332;18.034;2023-04-10T10:04:08;102400.91;;;13.35;45.71
51715;BME280;39115;59.332;18.034;2023-04-10T10:06:31;102406.25;;;13.35;45.63
51715;BME280;39115;59.332;18.034;2023-04-10T10:08:52;102407.75;;;13.39;45.52
51715;BME280;39115;59.332;18.034;2023-04-10T10:11:12;102397.28;;;13.36;45.64
51715;BME280;39115;59.332;18.034;2023-04-10T10:13:37;102393.22;;;13.31;45.80
51715;BME280;39115;59.332;18.034;2023-04-10T10:18:23;102391.38;;;13.44;45.82
51715;BME280;39115;59.332;18.034;2023-04-10T10:20:46;102394.34;;;13.52;45.73
51715;BME280;39115;59.332;18.034;2023-04-10T10:23:07;102394.00;;;13.57;45.65
51715;BME280;39115;59.332;18.034;2023-04-10T10:25:27;102387.34;;;13.63;45.61
51715;BME280;39115;59.332;18.034;2023-04-10T10:27:50;102383.34;;;13.68;45.66
51715;BME280;39115;59.332;18.034;2023-04-10T10:30:11;102391.00;;;13.73;45.76
51715;BME280;39115;59.332;18.034;2023-04-10T10:32:33;102382.53;;;13.79;45.46
51715;BME280;39115;59.332;18.034;2023-04-10T10:34:53;102380.59;;;13.81;45.55
51715;BME280;39115;59.332;18.034;2023-04-10T10:37:15;102376.84;;;13.84;45.43
51715;BME280;39115;59.332;18.034;2023-04-10T10:44:53;102364.56;;;13.93;45.31
51715;BME280;39115;59.332;18.034;2023-04-10T10:47:21;102364.56;;;13.93;45.57
51715;BME280;39115;59.332;18.034;2023-04-10T10:49:59;102355.22;;;13.98;45.45
51715;BME280;39115;59.332;18.034;2023-04-10T10:52:39;102354.63;;;14.06;45.41
51715;BME280;39115;59.332;18.034;2023-04-10T10:55:21;102355.97;;;14.12;45.56
51715;BME280;39115;59.332;18.034;2023-04-10T10:57:45;102353.69;;;14.18;45.56
51715;BME280;39115;59.332;18.034;2023-04-10T11:00:05;102344.28;;;14.24;45.54
51715;BME280;39115;59.332;18.034;2023-04-10T11:02:26;102342.59;;;14.23;45.30
51715;BME280;39115;59.332;18.034;2023-04-10T11:04:47;102336.75;;;14.18;45.71
51715;BME280;39115;59.332;18.034;2023-04-10T11:07:07;102335.16;;;14.15;45.48
51715;BME280;39115;59.332;18.034;2023-04-10T11:12:03;102336.41;;;14.11;45.68
51715;BME280;39115;59.332;18.034;2023-04-10T11:14:26;102335.28;;;14.14;45.74
51715;BME280;39115;59.332;18.034;2023-04-10T11:16:48;102330.03;;;14.12;45.64
51715;BME280;39115;59.332;18.034;2023-04-10T11:19:09;102328.09;;;14.14;45.72
51715;BME280;39115;59.332;18.034;2023-04-10T11:21:33;102330.66;;;14.16;45.43
51715;BME280;39115;59.332;18.034;2023-04-10T11:28:57;102322.03;;;14.23;45.35
51715;BME280;39115;59.332;18.034;2023-04-10T11:33:39;102311.94;;;14.27;45.53
51715;BME280;39115;59.332;18.034;2023-04-10T11:35:59;102310.84;;;14.30;45.61
51715;BME280;39115;59.332;18.034;2023-04-10T11:38:21;102310.97;;;14.28;45.62
51715;BME280;39115;59.332;18.034;2023-04-10T11:40:54;102306.56;;;14.27;45.35
51715;BME280;39115;59.332;18.034;2023-04-10T11:43:15;102308.50;;;14.25;45.27
51715;BME280;39115;59.332;18.034;2023-04-10T11:45:35;102314.00;;;14.23;45.60
51715;BME280;39115;59.332;18.034;2023-04-10T11:47:56;102310.22;;;14.26;45.69
51715;BME280;39115;59.332;18.034;2023-04-10T11:50:16;102301.00;;;14.30;45.44
51715;BME280;39115;59.332;18.034;2023-04-10T11:52:37;102298.91;;;14.34;45.45
51715;BME280;39115;59.332;18.034;2023-04-10T11:54:57;102299.63;;;14.36;45.26
51715;BME280;39115;59.332;18.034;2023-04-10T11:57:18;102294.88;;;14.39;45.52
51715;BME280;39115;59.332;18.034;2023-04-10T11:59:38;102286.47;;;14.44;45.52
51715;BME280;39115;59.332;18.034;2023-04-10T12:04:25;102276.25;;;14.49;45.32
51715;BME280;39115;59.332;18.034;2023-04-10T12:06:46;102280.63;;;14.50;45.35
51715;BME280;39115;59.332;18.034;2023-04-10T12:09:16;102273.22;;;14.54;45.52
51715;BME280;39115;59.332;18.034;2023-04-10T12:11:37;102269.06;;;14.61;45.39
51715;BME280;39115;59.332;18.034;2023-04-10T12:13:57;102268.47;;;14.69;45.49
51715;BME280;39115;59.332;18.034;2023-04-10T12:16:18;102262.22;;;14.80;45.22
51715;BME280;39115;59.332;18.034;2023-04-10T12:18:38;102269.88;;;14.84;45.08
51715;BME280;39115;59.332;18.034;2023-04-10T12:20:59;102267.81;;;14.88;45.24
51715;BME280;39115;59.332;18.034;2023-04-10T12:23:19;102267.44;;;14.93;45.21
51715;BME280;39115;59.332;18.034;2023-04-10T12:25:40;102262.41;;;14.99;45.04
51715;BME280;39115;59.332;18.034;2023-04-10T12:28:00;102256.41;;;15.07;45.31
51715;BME280;39115;59.332;18.034;2023-04-10T12:30:21;102253.22;;;15.13;44.91
51715;BME280;39115;59.332;18.034;2023-04-10T12:32:41;102250.72;;;15.22;45.04
51715;BME280;39115;59.332;18.034;2023-04-10T12:35:09;102254.59;;;15.29;44.84
51715;BME280;39115;59.332;18.034;2023-04-10T12:37:46;102241.19;;;15.29;44.88
51715;BME280;39115;59.332;18.034;2023-04-10T12:40:07;102235.44;;;15.33;45.17
51715;BME280;39115;59.332;18.034;2023-04-10T12:42:28;102244.94;;;15.38;45.00
51715;BME280;39115;59.332;18.034;2023-04-10T12:44:55;102239.19;;;15.42;44.93
51715;BME280;39115;59.332;18.034;2023-04-10T12:47:15;102231.00;;;15.44;45.26
51715;BME280;39115;59.332;18.034;2023-04-10T12:49:36;102235.53;;;15.43;45.29
51715;BME280;39115;59.332;18.034;2023-04-10T12:51:56;102226.63;;;15.43;45.10
51715;BME280;39115;59.332;18.034;2023-04-10T12:54:29;102228.47;;;15.42;44.97
51715;BME280;39115;59.332;18.034;2023-04-10T12:56:50;102230.03;;;15.45;45.13